Time;durP1;ratioP1;P1;durP2;ratioP2;P2;SDS_P1;SDS_P2;PMS_P1;PMS_P2;Temp;Humidity;BMP_temperature;BMP_pressure;BME280_temperature;BME280_humidity;BME280_pressure;Samples;Min_cycle;Max_cycle;Signal;HPM_P1;HPM_P2
2023/06/09 00:01:58;;;;;;;1.10;0.60;;;11.90;1.00;;;;;;4827818;29;20058;-86
2023/06/09 00:04:35;;;;;;;0.40;0.40;;;12.50;1.00;;;;;;4813665;29;20397;-86
2023/06/09 00:07:02;;;;;;;1.77;0.38;;;12.40;1.00;;;;;;4812268;29;20076;-86
2023/06/09 00:09:32;;;;;;;0.10;0.10;;;12.50;1.00;;;;;;4813032;29;20050;-86
2023/06/09 00:12:03;;;;;;;0.22;0.22;;;12.50;1.00;;;;;;4811708;29;20101;-86
2023/06/09 00:14:49;;;;;;;1.42;0.70;;;12.50;1.00;;;;;;4813025;29;20063;-85
2023/06/09 00:17:20;;;;;;;0.30;0.30;;;12.50;1.00;;;;;;4799039;29;20104;-86
2023/06/09 00:19:46;;;;;;;0.77;0.75;;;12.50;1.00;;;;;;4827582;29;20057;-87
2023/06/09 00:22:32;;;;;;;0.45;0.43;;;12.50;1.00;;;;;;4812890;29;20050;-86
2023/06/09 00:25:03;;;;;;;0.68;0.30;;;12.50;1.00;;;;;;4827472;29;20058;-86
2023/06/09 00:27:32;;;;;;;0.20;0.20;;;12.10;1.00;;;;;;4796535;29;20142;-86
2023/06/09 00:30:08;;;;;;;0.55;0.30;;;12.30;1.00;;;;;;4812331;29;20374;-86
2023/06/09 00:32:56;;;;;;;0.90;0.25;;;12.30;1.00;;;;;;4812905;29;20118;-86
2023/06/09 00:35:49;;;;;;;0.50;0.50;;;13.10;1.00;;;;;;4799223;29;20550;-86
2023/06/09 00:38:22;;;;;;;0.30;0.28;;;12.30;1.00;;;;;;4827703;29;20054;-86
2023/06/09 00:40:55;;;;;;;0.63;0.40;;;12.20;1.00;;;;;;4824098;29;20050;-86
2023/06/09 00:43:43;;;;;;;;;;;;;;;;;;;;;
2023/06/09 00:46:22;;;;;;;;;;;;;;;;;;;;;
2023/06/09 00:48:54;;;;;;;0.50;0.50;;;12.10;1.00;;;;;;4801984;29;20065;-86
2023/06/09 00:51:30;;;;;;;0.82;0.40;;;12.90;1.00;;;;;;4809126;29;20508;-86
2023/06/09 00:54:19;;;;;;;0.80;0.30;;;12.20;1.00;;;;;;4814825;29;20092;-86
2023/06/09 00:56:50;;;;;;;0.40;0.20;;;12.10;1.00;;;;;;4814822;29;20053;-86
2023/06/09 00:59:28;;;;;;;1.05;0.50;;;12.10;1.00;;;;;;4827606;29;20106;-85
2023/06/09 01:02:05;;;;;;;0.43;0.20;;;12.00;12.10;;;;;;4811925;29;20109;-86
2023/06/09 01:04:42;;;;;;;0.52;0.50;;;11.90;4.50;;;;;;4811952;29;20046;-86
2023/06/09 01:07:41;;;;;;;1.55;0.65;;;11.90;2.80;;;;;;4827166;29;20045;-86
2023/06/09 01:10:17;;;;;;;1.38;0.70;;;12.00;4.70;;;;;;4811112;29;20540;-85
2023/06/09 01:13:00;;;;;;;0.40;0.40;;;11.90;1.00;;;;;;4812146;29;20056;-87
2023/06/09 01:15:41;;;;;;;0.40;0.40;;;11.90;1.00;;;;;;4811663;29;20066;-87
2023/06/09 01:18:30;;;;;;;0.73;0.47;;;11.90;9.10;;;;;;4789717;29;20058;-86
2023/06/09 01:21:32;;;;;;;0.22;0.22;;;11.90;8.40;;;;;;4808955;29;20137;-86
2023/06/09 01:24:23;;;;;;;1.25;0.70;;;11.90;2.30;;;;;;4812470;29;20050;-86
2023/06/09 01:26:50;;;;;;;0.50;0.50;;;11.90;18.10;;;;;;4811280;29;20164;-86
2023/06/09 01:29:25;;;;;;;0.70;0.63;;;11.90;15.70;;;;;;4811407;29;20054;-86
2023/06/09 01:32:04;;;;;;;;;;;;;;;;;;;;;
2023/06/09 01:34:41;;;;;;;;;;;;;;;;;;;;;
2023/06/09 01:37:14;;;;;;;0.35;0.35;;;11.80;18.20;;;;;;4821118;29;20050;-86
2023/06/09 01:39:50;;;;;;;1.25;1.13;;;11.80;7.90;;;;;;4811577;29;20057;-85
2023/06/09 01:42:27;;;;;;;0.38;0.38;;;11.80;4.30;;;;;;4826876;29;20054;-86
2023/06/09 01:44:52;;;;;;;0.43;0.30;;;11.80;4.60;;;;;;4810905;29;20089;-84
2023/06/09 01:47:24;;;;;;;0.50;0.50;;;11.70;20.00;;;;;;4810183;29;20092;-84
2023/06/09 01:50:19;;;;;;;0.95;0.47;;;11.80;36.30;;;;;;4824859;29;20806;-85
2023/06/09 01:52:50;;;;;;;1.40;0.43;;;11.70;48.30;;;;;;4810549;29;20085;-86
2023/06/09 01:58:32;;;;;;;0.43;0.35;;;11.70;37.40;;;;;;4825395;29;20062;-86
2023/06/09 02:01:02;;;;;;;3.20;0.52;;;11.60;37.90;;;;;;4811001;29;20061;-86
2023/06/09 02:04:09;;;;;;;0.32;0.32;;;10.50;24.20;;;;;;4811187;29;20053;-86
2023/06/09 02:06:40;;;;;;;0.70;0.47;;;11.70;31.30;;;;;;4826298;29;20053;-86
2023/06/09 02:09:27;;;;;;;2.17;0.80;;;11.50;39.20;;;;;;4825622;29;20433;-86
2023/06/09 02:12:07;;;;;;;;;;;;;;;;;;;;;
2023/06/09 02:14:49;;;;;;;0.50;0.50;;;11.50;41.70;;;;;;4825679;29;20062;-86
2023/06/09 02:17:39;;;;;;;0.60;0.60;;;11.50;27.00;;;;;;4825671;29;20046;-86
2023/06/09 02:22:56;;;;;;;0.68;0.60;;;11.50;39.00;;;;;;4801018;29;20051;-91
2023/06/09 02:25:33;;;;;;;1.98;1.08;;;11.60;19.50;;;;;;4807955;29;20046;-86
2023/06/09 02:28:15;;;;;;;;;;;;;;;;;;;;;
2023/06/09 02:30:49;;;;;;;0.70;0.45;;;11.60;63.00;;;;;;4840629;29;19932;-86
2023/06/09 02:33:27;;;;;;;0.17;0.17;;;11.50;33.70;;;;;;4809844;29;20573;-86
2023/06/09 02:36:03;;;;;;;;;;;;;;;;;;;;;
2023/06/09 02:38:34;;;;;;;0.73;0.55;;;11.50;38.90;;;;;;4843011;29;20101;-86
2023/06/09 02:41:10;;;;;;;0.57;0.40;;;11.60;37.30;;;;;;4828945;29;20125;-86
2023/06/09 02:43:43;;;;;;;0.52;0.43;;;11.50;32.10;;;;;;4828873;29;20497;-86
2023/06/09 02:46:21;;;;;;;0.93;0.65;;;11.50;27.10;;;;;;4826080;29;20497;-86
2023/06/09 02:49:00;;;;;;;;;;;;;;;;;;;;;
2023/06/09 02:51:26;;;;;;;0.63;0.50;;;11.60;33.20;;;;;;4836439;29;20389;-86
2023/06/09 02:53:52;;;;;;;0.47;0.47;;;11.50;34.60;;;;;;4828791;29;20050;-86
2023/06/09 02:56:18;;;;;;;0.50;0.50;;;10.60;42.30;;;;;;4828328;29;20302;-86
2023/06/09 02:58:54;;;;;;;0.70;0.50;;;11.50;54.30;;;;;;4840241;29;20050;-86
2023/06/09 03:01:36;;;;;;;1.65;0.80;;;11.40;41.40;;;;;;4809937;29;20454;-86
2023/06/09 03:04:10;;;;;;;0.40;0.38;;;11.40;36.30;;;;;;4824703;29;20134;-86
2023/06/09 03:06:48;;;;;;;0.65;0.50;;;11.50;37.00;;;;;;4825817;29;20054;-85
2023/06/09 03:12:13;;;;;;;0.77;0.75;;;11.40;39.10;;;;;;4821842;29;20387;-87
2023/06/09 03:14:51;;;;;;;;;;;;;;;;;;;;;
2023/06/09 03:17:41;;;;;;;0.75;0.40;;;11.50;28.00;;;;;;4837012;29;20497;-86
2023/06/09 03:20:21;;;;;;;;;;;;;;;;;;;;;
2023/06/09 03:23:26;;;;;;;0.90;0.90;;;11.50;37.20;;;;;;4830397;29;20129;-86
2023/06/09 03:25:49;;;;;;;0.82;0.40;;;11.50;37.40;;;;;;4802587;29;20054;-86
2023/06/09 03:28:18;;;;;;;0.43;0.43;;;10.50;49.90;;;;;;4827875;29;20076;-86
2023/06/09 03:30:55;;;;;;;0.90;0.85;;;10.60;39.20;;;;;;4811212;29;20062;-86
2023/06/09 03:33:33;;;;;;;1.80;0.50;;;10.60;44.70;;;;;;4822901;29;20058;-86
2023/06/09 03:36:01;;;;;;;1.30;0.38;;;11.40;39.80;;;;;;4797519;29;20050;-86
2023/06/09 03:38:40;;;;;;;0.82;0.40;;;10.50;38.30;;;;;;4813353;29;20480;-86
2023/06/09 03:41:18;;;;;;;0.35;0.35;;;11.30;41.10;;;;;;4812905;29;20058;-86
2023/06/09 03:44:14;;;;;;;0.93;0.40;;;11.40;43.00;;;;;;4798128;29;20073;-87
2023/06/09 03:46:40;;;;;;;0.55;0.55;;;11.40;59.30;;;;;;4811324;29;20406;-87
2023/06/09 03:49:24;;;;;;;0.70;0.63;;;11.40;59.30;;;;;;4791492;29;20054;-87
2023/06/09 03:51:51;;;;;;;0.77;0.77;;;11.40;55.80;;;;;;4820972;29;20454;-86
2023/06/09 03:54:20;;;;;;;0.45;0.45;;;11.40;42.70;;;;;;4809878;29;20046;-87
2023/06/09 03:56:57;;;;;;;1.20;0.95;;;11.40;49.30;;;;;;4828491;29;20054;-86
2023/06/09 03:59:25;;;;;;;0.90;0.47;;;11.40;50.30;;;;;;4841897;29;20085;-87
2023/06/09 04:01:54;;;;;;;1.27;0.63;;;11.50;42.10;;;;;;4797113;29;20133;-86
2023/06/09 04:04:22;;;;;;;0.47;0.47;;;11.60;43.60;;;;;;4812206;29;20056;-87
2023/06/09 04:06:51;;;;;;;0.57;0.57;;;11.60;44.70;;;;;;4796823;29;20058;-87
2023/06/09 04:09:35;;;;;;;;;;;;;;;;;;;;;
2023/06/09 04:12:20;;;;;;;;;;;;;;;;;;;;;
2023/06/09 04:14:53;;;;;;;0.85;0.70;;;12.40;48.50;;;;;;4821249;29;20102;-86
2023/06/09 04:17:27;;;;;;;0.55;0.50;;;10.90;40.80;;;;;;4818877;29;20046;-86
2023/06/09 04:20:17;;;;;;;;;;;;;;;;;;;;;
2023/06/09 04:22:59;;;;;;;0.80;0.50;;;11.30;41.30;;;;;;4826429;29;20133;-86
2023/06/09 04:25:34;;;;;;;1.50;0.70;;;11.90;41.80;;;;;;4826732;29;20066;-86
2023/06/09 04:28:05;;;;;;;1.08;0.95;;;11.10;34.70;;;;;;4812333;29;20061;-86
2023/06/09 04:30:35;;;;;;;0.70;0.57;;;11.90;42.10;;;;;;4816494;29;20133;-86
2023/06/09 04:33:13;;;;;;;0.45;0.45;;;12.20;37.70;;;;;;4826633;29;20130;-86
2023/06/09 04:35:54;;;;;;;0.75;0.60;;;11.80;41.10;;;;;;4796704;29;20065;-86
2023/06/09 04:38:29;;;;;;;1.05;0.88;;;11.70;36.60;;;;;;4825487;29;20045;-86
2023/06/09 04:41:07;;;;;;;;;;;;;;;;;;;;;
2023/06/09 04:43:49;;;;;;;;;;;;;;;;;;;;;
2023/06/09 04:46:26;;;;;;;;;;;;;;;;;;;;;
2023/06/09 04:48:57;;;;;;;0.80;0.52;;;12.90;41.90;;;;;;4824989;29;20417;-87
2023/06/09 04:51:34;;;;;;;;;;;;;;;;;;;;;
2023/06/09 04:54:00;;;;;;;0.75;0.73;;;13.10;40.20;;;;;;4827291;29;20085;-86
2023/06/09 04:56:32;;;;;;;0.60;0.60;;;12.50;34.30;;;;;;4811917;29;20050;-87
2023/06/09 04:59:07;;;;;;;1.10;0.70;;;12.60;45.00;;;;;;4825475;29;20587;-86
2023/06/09 05:01:41;;;;;;;0.90;0.90;;;12.70;43.10;;;;;;4810686;29;20049;-87
2023/06/09 05:04:21;;;;;;;0.82;0.80;;;12.80;31.00;;;;;;4826835;29;20081;-87
2023/06/09 05:10:11;;;;;;;;;;;;;;;;;;;;;
2023/06/09 05:12:49;;;;;;;0.70;0.57;;;13.30;26.10;;;;;;4813291;29;20061;-87
2023/06/09 05:15:20;;;;;;;1.58;1.10;;;13.80;21.70;;;;;;4794264;29;20089;-88
2023/06/09 05:17:56;;;;;;;0.77;0.77;;;14.30;12.70;;;;;;4796181;29;20074;-87
2023/06/09 05:20:22;;;;;;;0.77;0.73;;;15.20;1.00;;;;;;4800344;29;20099;-94
2023/06/09 05:22:48;;;;;;;1.40;0.60;;;15.80;1.00;;;;;;4813175;29;20463;-84
2023/06/09 05:25:14;;;;;;;1.58;1.15;;;16.30;1.00;;;;;;4841601;29;20390;-86
2023/06/09 05:27:40;;;;;;;0.35;0.35;;;16.60;1.00;;;;;;4823828;29;20045;-86
2023/06/09 05:30:06;;;;;;;0.90;0.80;;;17.10;1.00;;;;;;4826109;29;20050;-87
2023/06/09 05:32:32;;;;;;;0.55;0.52;;;17.40;1.00;;;;;;4841829;29;20058;-86
2023/06/09 05:35:00;;;;;;;0.68;0.60;;;17.80;1.00;;;;;;4824125;29;20060;-86
2023/06/09 05:37:26;;;;;;;0.77;0.52;;;18.00;1.00;;;;;;4832638;29;20125;-87
2023/06/09 05:39:53;;;;;;;0.55;0.50;;;18.30;1.00;;;;;;4826381;29;20065;-86
2023/06/09 05:42:18;;;;;;;0.70;0.70;;;18.50;1.00;;;;;;4825657;29;20073;-87
2023/06/09 05:44:44;;;;;;;1.83;1.65;;;18.70;1.00;;;;;;4826121;29;20049;-85
2023/06/09 05:47:10;;;;;;;0.43;0.43;;;18.90;1.00;;;;;;4840845;29;20061;-85
2023/06/09 05:49:36;;;;;;;0.90;0.73;;;19.20;1.00;;;;;;4825264;29;20069;-86
2023/06/09 05:52:02;;;;;;;1.25;0.65;;;19.40;1.00;;;;;;4804662;29;20533;-90
2023/06/09 05:54:28;;;;;;;3.15;0.95;;;19.50;1.00;;;;;;4806651;29;20133;-86
2023/06/09 05:56:54;;;;;;;0.28;0.28;;;19.70;1.00;;;;;;4789015;29;20128;-84
2023/06/09 05:59:23;;;;;;;6.32;0.85;;;19.90;1.00;;;;;;4822090;29;20054;-85
2023/06/09 06:01:49;;;;;;;0.52;0.50;;;19.90;99.90;;;;;;4808359;29;20085;-85
2023/06/09 06:04:15;;;;;;;0.80;0.70;;;20.10;99.90;;;;;;4805870;29;20053;-85
2023/06/09 06:06:41;;;;;;;0.73;0.70;;;20.20;99.90;;;;;;4803179;29;20395;-83
2023/06/09 06:09:07;;;;;;;0.65;0.65;;;20.30;99.90;;;;;;4807368;29;20058;-83
2023/06/09 06:11:33;;;;;;;1.33;0.98;;;20.50;99.90;;;;;;4784848;29;20050;-84
2023/06/09 06:13:58;;;;;;;0.38;0.38;;;20.50;99.90;;;;;;4792495;29;20410;-84
2023/06/09 06:16:24;;;;;;;0.75;0.75;;;20.50;99.90;;;;;;4821543;29;20129;-85
2023/06/09 06:18:50;;;;;;;1.00;0.65;;;20.50;99.90;;;;;;4802694;29;20175;-84
2023/06/09 06:21:20;;;;;;;0.65;0.52;;;20.60;99.90;;;;;;4789837;29;20055;-86
2023/06/09 06:23:45;;;;;;;0.50;0.45;;;20.70;99.90;;;;;;4803184;29;20049;-86
2023/06/09 06:26:11;;;;;;;1.50;1.17;;;20.80;99.90;;;;;;4805550;29;20046;-84
2023/06/09 06:28:37;;;;;;;0.75;0.57;;;20.80;99.90;;;;;;4801228;29;20073;-84
2023/06/09 06:31:03;;;;;;;0.65;0.47;;;20.80;99.90;;;;;;4799855;29;20129;-85
2023/06/09 06:33:29;;;;;;;0.50;0.50;;;20.80;99.90;;;;;;4804894;29;20509;-84
2023/06/09 06:35:56;;;;;;;0.93;0.93;;;20.80;99.90;;;;;;4806519;29;20054;-85
2023/06/09 06:38:22;;;;;;;0.68;0.68;;;20.70;99.90;;;;;;4823878;29;20061;-85
2023/06/09 06:40:48;;;;;;;;;;;20.70;99.90;;;;;;4794845;29;20046;-86
2023/06/09 06:43:15;;;;;;;0.68;0.43;;;20.60;99.90;;;;;;4802147;29;19939;-85
2023/06/09 06:45:40;;;;;;;1.05;0.93;;;20.60;99.90;;;;;;4798899;29;20054;-85
2023/06/09 06:48:06;;;;;;;0.65;0.65;;;20.70;99.90;;;;;;4807707;29;20118;-85
2023/06/09 06:50:35;;;;;;;1.08;0.63;;;20.60;99.90;;;;;;4808097;29;20058;-85
2023/06/09 06:53:00;;;;;;;0.82;0.80;;;20.50;99.90;;;;;;4823916;29;20520;-86
2023/06/09 06:55:27;;;;;;;0.85;0.85;;;20.40;99.90;;;;;;4825523;29;20046;-86
2023/06/09 06:57:53;;;;;;;1.23;0.73;;;20.40;99.90;;;;;;4824872;29;20453;-87
2023/06/09 07:00:19;;;;;;;1.23;0.90;;;20.40;99.90;;;;;;4809566;29;20057;-85
2023/06/09 07:02:46;;;;;;;;;;;20.40;99.90;;;;;;4806254;29;20061;-85
2023/06/09 07:05:12;;;;;;;0.60;0.60;;;20.40;99.90;;;;;;4792484;29;20008;-86
2023/06/09 07:07:38;;;;;;;;;;;20.40;99.90;;;;;;4823366;29;20125;-83
2023/06/09 07:10:16;;;;;;;2.03;0.57;;;20.40;99.90;;;;;;4805962;29;20436;-91
2023/06/09 07:12:44;;;;;;;1.17;0.98;;;20.00;99.90;;;;;;4808035;29;20149;-86
2023/06/09 07:15:13;;;;;;;1.23;0.80;;;20.70;99.90;;;;;;4808752;29;20125;-89
2023/06/09 07:17:39;;;;;;;0.52;0.50;;;21.20;99.90;;;;;;4806762;29;20076;-89
2023/06/09 07:20:05;;;;;;;0.80;0.80;;;20.40;99.90;;;;;;4809479;29;20477;-89
2023/06/09 07:22:33;;;;;;;0.60;0.60;;;21.00;99.90;;;;;;4764008;29;20046;-89
2023/06/09 07:25:02;;;;;;;0.77;0.50;;;21.10;93.00;;;;;;4809169;29;20078;-89
2023/06/09 07:27:30;;;;;;;0.55;0.55;;;21.40;87.30;;;;;;4825008;29;20042;-92
2023/06/09 07:29:58;;;;;;;0.88;0.88;;;21.50;1.00;;;;;;4777881;29;20129;-89
2023/06/09 07:32:24;;;;;;;1.13;1.05;;;21.70;1.00;;;;;;4819669;29;20082;-88
2023/06/09 07:34:50;;;;;;;0.75;0.75;;;21.80;99.90;;;;;;4807551;29;20089;-88
2023/06/09 07:37:16;;;;;;;1.02;0.77;;;21.90;99.90;;;;;;4808689;29;20473;-88
2023/06/09 07:39:44;;;;;;;0.45;0.43;;;22.10;99.90;;;;;;4808564;29;20086;-88
2023/06/09 07:42:10;;;;;;;0.70;0.70;;;22.30;1.00;;;;;;4808639;29;20200;-88
2023/06/09 07:44:39;;;;;;;0.65;0.50;;;22.40;1.00;;;;;;4808151;29;20133;-87
2023/06/09 07:47:12;;;;;;;0.70;0.70;;;22.50;1.00;;;;;;4808812;29;20058;-88
2023/06/09 07:50:13;;;;;;;1.27;0.95;;;22.60;99.90;;;;;;4806705;29;20573;-96
2023/06/09 07:53:42;;;;;;;;;;;;;;;;;;;;;
2023/06/09 08:05:52;;;;;;;1.02;0.52;;;22.60;99.90;;;;;;4788119;29;20062;-96
2023/06/09 08:09:04;;;;;;;0.47;0.47;;;22.00;99.90;;;;;;4783688;29;20046;-96
2023/06/09 08:11:56;;;;;;;1.83;1.15;;;22.20;99.90;;;;;;4770457;29;20066;-96
2023/06/09 08:14:39;;;;;;;0.57;0.57;;;22.60;1.00;;;;;;4803743;29;20069;-96
2023/06/09 08:17:40;;;;;;;0.98;0.85;;;22.00;99.90;;;;;;4770240;29;20497;-96
2023/06/09 08:20:20;;;;;;;0.82;0.68;;;22.70;1.00;;;;;;4777585;29;20054;-96
2023/06/09 08:32:51;;;;;;;;;;;;;;;;;;;;;
2023/06/09 08:35:47;;;;;;;;;;;;;;;;;;;;;
2023/06/09 08:42:29;;;;;;;;;;;;;;;;;;;;;
2023/06/09 08:48:30;;;;;;;0.70;0.70;;;23.50;99.90;;;;;;4717251;30;20068;-96
2023/06/09 08:51:28;;;;;;;;;;;;;;;;;;;;;
2023/06/09 09:01:41;;;;;;;;;;;;;;;;;;;;;
2023/06/09 09:04:34;;;;;;;;;;;;;;;;;;;;;
2023/06/09 09:07:32;;;;;;;0.55;0.55;;;24.30;99.90;;;;;;4712349;30;20057;-96
2023/06/09 09:10:10;;;;;;;;;;;24.40;99.90;;;;;;4726274;30;20547;-96
2023/06/09 09:13:24;;;;;;;0.50;0.50;;;24.50;1.00;;;;;;4721930;30;19977;-96
2023/06/09 09:16:02;;;;;;;0.98;0.98;;;24.10;99.90;;;;;;4706376;30;20069;-96
2023/06/09 09:18:47;;;;;;;;;;;;;;;;;;;;;
2023/06/09 09:25:25;;;;;;;;;;;;;;;;;;;;;
2023/06/09 09:28:22;;;;;;;0.75;0.70;;;24.70;1.00;;;;;;4807710;29;20089;-96
2023/06/09 09:31:23;;;;;;;0.55;0.40;;;24.70;68.60;;;;;;4793488;29;20057;-96
2023/06/09 09:37:21;;;;;;;0.88;0.70;;;24.90;99.90;;;;;;4809850;29;20082;-96
2023/06/09 09:40:12;;;;;;;0.90;0.70;;;25.00;99.90;;;;;;4789335;29;20157;-96
2023/06/09 10:18:25;;;;;;;0.63;0.55;;;26.00;99.90;;;;;;4750835;30;20062;-96
2023/06/09 10:21:06;;;;;;;;;;;;;;;;;;;;;
2023/06/09 10:23:33;;;;;;;0.60;0.60;;;26.20;99.90;;;;;;4736575;30;20044;-91
2023/06/09 10:26:01;;;;;;;0.80;0.80;;;26.30;99.90;;;;;;4749392;30;20056;-92
2023/06/09 10:28:30;;;;;;;1.65;0.82;;;26.40;99.90;;;;;;4749947;30;20114;-92
2023/06/09 10:30:58;;;;;;;0.88;0.80;;;26.50;99.90;;;;;;4735503;30;20113;-93
2023/06/09 10:33:33;;;;;;;0.50;0.50;;;26.50;99.90;;;;;;4737536;30;20224;-90
2023/06/09 10:36:08;;;;;;;1.10;0.85;;;26.60;99.90;;;;;;4735672;30;20048;-92
2023/06/09 10:38:53;;;;;;;0.65;0.60;;;26.70;99.90;;;;;;4736060;30;20129;-94
2023/06/09 10:41:47;;;;;;;1.10;0.90;;;26.90;99.90;;;;;;4720982;30;20526;-91
2023/06/09 10:44:57;;;;;;;0.80;0.80;;;26.80;99.90;;;;;;4718328;30;20056;-92
2023/06/09 10:47:48;;;;;;;0.82;0.80;;;26.90;99.90;;;;;;4752085;30;20088;-92
2023/06/09 10:50:25;;;;;;;0.80;0.57;;;27.10;99.90;;;;;;4758164;30;20059;-93
2023/06/09 10:52:59;;;;;;;0.73;0.70;;;27.10;99.90;;;;;;4750076;30;20035;-91
2023/06/09 10:55:30;;;;;;;1.27;0.90;;;27.20;99.90;;;;;;4791562;30;20062;-88
2023/06/09 10:57:58;;;;;;;0.90;0.85;;;27.30;99.90;;;;;;4775773;30;20055;-92
2023/06/09 11:00:46;;;;;;;1.10;1.00;;;27.50;99.90;;;;;;4771761;29;20048;-92
2023/06/09 11:03:21;;;;;;;0.80;0.80;;;27.60;99.90;;;;;;4742830;30;20043;-92
2023/06/09 11:06:15;;;;;;;;;;;;;;;;;;;;;
2023/06/09 11:09:30;;;;;;;;;;;;;;;;;;;;;
2023/06/09 11:11:58;;;;;;;0.90;0.63;;;27.70;88.90;;;;;;4718031;30;19948;-87
2023/06/09 11:14:51;;;;;;;1.20;1.15;;;27.70;99.90;;;;;;4781460;30;20067;-92
2023/06/09 11:17:17;;;;;;;0.90;0.90;;;27.80;93.50;;;;;;4788843;29;20573;-93
2023/06/09 11:19:46;;;;;;;1.20;0.90;;;27.90;99.80;;;;;;4798236;29;20042;-90
2023/06/09 11:22:22;;;;;;;0.82;0.57;;;27.90;99.90;;;;;;4805898;29;20467;-96
2023/06/09 11:24:52;;;;;;;1.98;0.80;;;27.90;64.30;;;;;;4785220;29;20058;-96
2023/06/09 11:27:23;;;;;;;1.45;0.85;;;28.00;88.80;;;;;;4812691;29;20051;-96
2023/06/09 11:30:18;;;;;;;;;;;;;;;;;;;;;
2023/06/09 11:32:49;;;;;;;1.02;0.80;;;28.00;93.80;;;;;;4802457;29;20051;-96
2023/06/09 11:35:49;;;;;;;;;;;;;;;;;;;;;
2023/06/09 11:38:44;;;;;;;0.90;0.90;;;28.20;20.00;;;;;;4801237;29;20406;-96
2023/06/09 11:41:37;;;;;;;1.13;1.02;;;27.60;70.10;;;;;;4774364;29;20118;-96
2023/06/09 11:44:27;;;;;;;;;;;;;;;;;;;;;
2023/06/09 11:47:16;;;;;;;0.90;0.90;;;28.30;33.60;;;;;;4770934;29;20055;-96
2023/06/09 11:49:45;;;;;;;1.85;0.75;;;28.50;31.20;;;;;;4773664;29;20058;-96
2023/06/09 11:52:48;;;;;;;1.00;1.00;;;29.30;24.80;;;;;;4812540;29;20072;-96
2023/06/09 11:56:07;;;;;;;;;;;;;;;;;;;;;
2023/06/09 11:58:36;;;;;;;1.73;0.90;;;28.20;25.40;;;;;;4767736;29;20214;-91
2023/06/09 12:01:02;;;;;;;0.55;0.55;;;28.90;31.20;;;;;;4818634;29;20055;-95
2023/06/09 12:06:06;;;;;;;1.33;0.97;;;28.90;21.60;;;;;;5098880;24;20092;-96
2023/06/09 12:09:42;;;;;;;;;;;;;;;;;;;;;
2023/06/09 12:12:24;;;;;;;1.13;1.07;;;28.60;1.80;;;;;;5214857;24;20096;-89
2023/06/09 12:15:06;;;;;;;;;;;;;;;;;;;;;
2023/06/09 12:18:02;;;;;;;1.30;1.20;;;28.70;1.00;;;;;;4864178;29;20073;-96
2023/06/09 12:26:49;;;;;;;1.20;1.10;;;29.00;1.00;;;;;;4788112;30;20043;-96
2023/06/09 12:29:26;;;;;;;1.23;1.10;;;28.80;1.00;;;;;;4793751;30;20066;-96
2023/06/09 12:32:10;;;;;;;0.65;0.65;;;29.30;1.00;;;;;;5006599;24;20068;-96
2023/06/09 12:34:48;;;;;;;1.98;1.00;;;28.90;1.00;;;;;;5031044;24;20453;-96
2023/06/09 12:40:26;;;;;;;;;;;;;;;;;;;;;
2023/06/09 12:47:08;;;;;;;1.30;1.13;;;29.60;1.00;;;;;;5695272;24;22451;-96
2023/06/09 12:49:34;;;;;;;1.15;1.08;;;29.20;1.00;;;;;;4794297;29;20046;-95
2023/06/09 12:52:05;;;;;;;0.98;0.98;;;29.30;1.00;;;;;;4795127;29;20061;-91
2023/06/09 12:54:30;;;;;;;1.10;1.00;;;29.30;1.00;;;;;;4810974;29;20058;-93
2023/06/09 12:57:07;;;;;;;1.45;1.35;;;29.30;1.00;;;;;;4794639;29;20060;-93
2023/06/09 12:59:35;;;;;;;1.30;1.20;;;29.40;1.00;;;;;;4764935;29;20057;-92
2023/06/09 13:02:03;;;;;;;1.48;0.80;;;29.50;1.00;;;;;;4779453;29;20046;-92
2023/06/09 13:04:29;;;;;;;1.58;0.80;;;29.70;1.00;;;;;;4795062;29;20088;-95
2023/06/09 13:06:55;;;;;;;0.98;0.90;;;29.70;1.00;;;;;;4794664;29;20062;-91
2023/06/09 13:09:25;;;;;;;1.95;0.80;;;29.70;1.00;;;;;;4810079;29;20414;-94
2023/06/09 13:12:00;;;;;;;0.95;0.80;;;29.80;1.00;;;;;;4795302;29;20506;-96
2023/06/09 13:14:39;;;;;;;1.10;1.00;;;28.90;1.00;;;;;;4793517;29;20466;-93
2023/06/09 13:17:17;;;;;;;0.50;0.50;;;29.90;1.00;;;;;;4781767;29;20096;-94
2023/06/09 13:19:52;;;;;;;1.20;1.10;;;29.90;1.00;;;;;;4793989;29;20082;-95
2023/06/09 13:22:27;;;;;;;0.90;0.85;;;29.90;1.00;;;;;;4794849;29;20073;-94
2023/06/09 13:25:06;;;;;;;0.80;0.80;;;30.00;1.00;;;;;;4797646;29;20047;-94
2023/06/09 13:27:37;;;;;;;1.52;1.20;;;30.20;1.00;;;;;;4825667;29;20118;-96
2023/06/09 13:30:16;;;;;;;0.82;0.82;;;30.10;1.00;;;;;;4810259;29;20134;-94
2023/06/09 13:32:41;;;;;;;1.15;1.00;;;30.20;1.00;;;;;;4809862;29;20128;-96
2023/06/09 13:35:10;;;;;;;1.13;0.98;;;30.10;1.00;;;;;;4811806;29;20088;-95
2023/06/09 13:37:38;;;;;;;1.05;0.95;;;30.10;1.00;;;;;;4810214;29;20107;-96
2023/06/09 13:40:08;;;;;;;0.98;0.90;;;30.00;1.00;;;;;;4798012;29;20097;-96
2023/06/09 13:42:47;;;;;;;;;;;;;;;;;;;;;
2023/06/09 13:45:16;;;;;;;0.90;0.90;;;30.00;1.00;;;;;;4818415;29;20084;-96
2023/06/09 13:48:18;;;;;;;;;;;;;;;;;;;;;
2023/06/09 13:50:51;;;;;;;1.05;0.95;;;30.20;1.00;;;;;;4811818;29;20521;-95
2023/06/09 13:53:22;;;;;;;1.80;1.33;;;29.50;1.00;;;;;;4789971;29;20119;-96
2023/06/09 14:01:18;;;;;;;0.85;0.70;;;30.10;1.00;;;;;;5166299;24;20050;-96
2023/06/09 14:07:32;;;;;;;0.88;0.80;;;30.10;1.00;;;;;;5365674;24;21021;31
2023/06/09 14:10:30;;;;;;;0.70;0.70;;;30.10;1.00;;;;;;4766519;29;20068;-96
2023/06/09 14:13:55;;;;;;;;;;;;;;;;;;;;;
2023/06/09 14:16:41;;;;;;;;;;;;;;;;;;;;;
2023/06/09 14:22:09;;;;;;;;;;;;;;;;;;;;;
2023/06/09 14:34:30;;;;;;;0.80;0.80;;;30.30;1.00;;;;;;4765421;24;20082;-96
2023/06/09 14:37:04;;;;;;;1.67;0.95;;;30.20;1.00;;;;;;4782605;29;20417;-96
2023/06/09 14:42:08;;;;;;;1.30;1.13;;;30.20;1.00;;;;;;5349772;24;20034;31
2023/06/09 14:44:40;;;;;;;1.55;1.15;;;30.10;1.00;;;;;;4775044;30;20087;-87
2023/06/09 14:47:20;;;;;;;1.00;1.00;;;28.80;1.00;;;;;;4754309;30;20404;-90
2023/06/09 14:49:54;;;;;;;1.20;1.00;;;29.90;1.00;;;;;;4733095;30;20055;-91
2023/06/09 14:52:25;;;;;;;2.22;1.27;;;29.60;1.00;;;;;;4754609;30;20059;-90
2023/06/09 14:55:04;;;;;;;;;;;;;;;;;;;;;
2023/06/09 14:57:38;;;;;;;1.08;1.08;;;29.90;1.00;;;;;;4754587;30;20404;-90
2023/06/09 15:00:08;;;;;;;1.50;0.95;;;30.00;1.00;;;;;;4739395;30;20420;-90
2023/06/09 15:08:15;;;;;;;1.17;1.08;;;29.90;1.00;;;;;;4749770;30;20056;-90
2023/06/09 15:10:45;;;;;;;1.17;0.90;;;29.90;1.00;;;;;;4749646;30;20508;-85
2023/06/09 15:13:15;;;;;;;1.10;1.00;;;29.80;1.00;;;;;;4774629;30;20063;-93
2023/06/09 15:15:41;;;;;;;1.08;1.05;;;29.80;1.00;;;;;;4744726;30;20056;-93
2023/06/09 15:18:13;;;;;;;1.17;1.10;;;29.70;1.00;;;;;;4742891;30;20109;-96
2023/06/09 15:20:52;;;;;;;0.95;0.93;;;29.60;1.00;;;;;;4743460;30;20059;-93
2023/06/09 15:23:20;;;;;;;1.30;1.02;;;29.50;1.00;;;;;;4742656;30;20048;-93
2023/06/09 15:25:56;;;;;;;;;;;;;;;;;;;;;
2023/06/09 15:35:49;;;;;;;1.38;1.23;;;29.50;1.00;;;;;;4683869;30;20073;-89
2023/06/09 15:41:58;;;;;;;0.82;0.82;;;29.60;1.00;;;;;;4755445;30;20532;-94
2023/06/09 15:44:44;;;;;;;1.63;1.10;;;29.40;1.00;;;;;;4720956;30;20055;-93
2023/06/09 15:47:12;;;;;;;0.77;0.77;;;29.40;1.00;;;;;;4743617;30;20177;-90
2023/06/09 15:49:42;;;;;;;1.23;1.13;;;29.20;1.00;;;;;;4757511;30;20056;-89
2023/06/09 15:52:16;;;;;;;1.20;1.10;;;29.20;1.00;;;;;;4744729;30;20055;-95
2023/06/09 15:54:50;;;;;;;1.20;1.10;;;29.10;1.00;;;;;;4760110;30;20388;-96
2023/06/09 15:57:21;;;;;;;1.23;1.00;;;28.80;1.00;;;;;;4757676;30;20055;-90
2023/06/09 15:59:49;;;;;;;1.25;1.15;;;28.30;1.00;;;;;;4758990;30;20048;-96
2023/06/09 16:02:15;;;;;;;0.90;0.90;;;28.20;1.00;;;;;;4757803;30;20088;-95
2023/06/09 16:04:43;;;;;;;0.98;0.90;;;28.70;1.00;;;;;;4774069;30;20047;-92
2023/06/09 16:07:11;;;;;;;0.77;0.77;;;28.70;1.00;;;;;;4760183;30;20047;-91
2023/06/09 16:09:42;;;;;;;1.10;1.00;;;28.60;1.00;;;;;;4759631;30;20063;-90
2023/06/09 16:12:18;;;;;;;1.95;0.93;;;28.70;1.00;;;;;;4774489;30;20082;-92
2023/06/09 16:14:44;;;;;;;1.00;0.90;;;28.60;1.00;;;;;;4749322;30;20056;-90
2023/06/09 16:17:19;;;;;;;1.30;1.20;;;28.60;1.00;;;;;;4755123;30;20052;-93
2023/06/09 16:19:48;;;;;;;1.30;1.05;;;28.60;1.00;;;;;;4742140;30;20055;-94
2023/06/09 16:22:27;;;;;;;1.92;1.10;;;28.70;1.00;;;;;;4744869;30;20139;-94
2023/06/09 16:25:02;;;;;;;1.40;0.90;;;28.00;1.00;;;;;;4729547;30;20044;-94
2023/06/09 16:27:30;;;;;;;0.73;0.73;;;28.40;1.00;;;;;;4740505;30;20048;-95
2023/06/09 16:30:01;;;;;;;0.68;0.65;;;28.40;1.00;;;;;;4728864;30;20083;-96
2023/06/09 16:32:29;;;;;;;1.13;1.00;;;28.40;1.00;;;;;;4743458;30;20109;-94
2023/06/09 16:34:58;;;;;;;1.00;0.75;;;28.40;1.00;;;;;;4752673;30;20048;-95
2023/06/09 16:37:29;;;;;;;1.35;0.80;;;28.30;1.00;;;;;;4726142;30;20129;-94
2023/06/09 16:39:57;;;;;;;1.20;0.77;;;28.20;1.00;;;;;;4750383;30;20051;-95
2023/06/09 16:42:27;;;;;;;0.80;0.80;;;28.10;1.00;;;;;;4757941;30;20048;-96
2023/06/09 16:44:59;;;;;;;1.35;1.25;;;28.00;1.00;;;;;;4756101;30;21781;-96
2023/06/09 16:47:27;;;;;;;1.10;0.82;;;28.00;1.00;;;;;;4740092;30;20403;-96
2023/06/09 16:49:55;;;;;;;0.80;0.70;;;27.90;1.00;;;;;;4740360;30;20548;-96
2023/06/09 16:52:21;;;;;;;1.00;0.90;;;27.90;1.00;;;;;;4742462;30;20048;-93
2023/06/09 16:54:53;;;;;;;1.10;1.00;;;27.80;1.00;;;;;;4752350;30;20111;-93
2023/06/09 16:57:24;;;;;;;0.90;0.70;;;27.60;1.00;;;;;;4739306;30;20048;-88